sensor_id;sensor_type;location;lat;lon;timestamp;pressure;altitude;pressure_sealevel;temperature;humidity
66664;BME280;59683;51.428;-1.994;2023-05-09T00:01:11;100599.22;;;11.40;100.00
66664;BME280;59683;51.428;-1.994;2023-05-09T00:03:39;100595.03;;;11.37;100.00
66664;BME280;59683;51.428;-1.994;2023-05-09T00:06:09;100592.38;;;11.37;100.00
66664;BME280;59683;51.428;-1.994;2023-05-09T00:08:44;100584.66;;;11.34;100.00
66664;BME280;59683;51.428;-1.994;2023-05-09T00:11:11;100580.44;;;11.32;100.00
66664;BME280;59683;51.428;-1.994;2023-05-09T00:13:38;100586.03;;;11.29;100.00
66664;BME280;59683;51.428;-1.994;2023-05-09T00:16:04;100579.41;;;11.23;100.00
66664;BME280;59683;51.428;-1.994;2023-05-09T00:18:30;100585.56;;;11.24;100.00
66664;BME280;59683;51.428;-1.994;2023-05-09T00:20:56;100587.25;;;11.25;100.00
66664;BME280;59683;51.428;-1.994;2023-05-09T00:23:22;100586.97;;;11.28;100.00
66664;BME280;59683;51.428;-1.994;2023-05-09T00:25:47;100585.06;;;11.30;100.00
66664;BME280;59683;51.428;-1.994;2023-05-09T00:28:13;100587.75;;;11.39;100.00
66664;BME280;59683;51.428;-1.994;2023-05-09T00:30:38;100582.22;;;11.42;100.00
66664;BME280;59683;51.428;-1.994;2023-05-09T00:33:04;100581.97;;;11.46;100.00
66664;BME280;59683;51.428;-1.994;2023-05-09T00:35:48;100582.09;;;11.44;100.00
66664;BME280;59683;51.428;-1.994;2023-05-09T00:38:13;100591.47;;;11.48;100.00
66664;BME280;59683;51.428;-1.994;2023-05-09T00:40:39;100584.81;;;11.54;100.00
66664;BME280;59683;51.428;-1.994;2023-05-09T00:43:05;100579.50;;;11.54;100.00
66664;BME280;59683;51.428;-1.994;2023-05-09T00:45:30;100587.34;;;11.55;100.00
66664;BME280;59683;51.428;-1.994;2023-05-09T00:47:56;100579.66;;;11.52;100.00
66664;BME280;59683;51.428;-1.994;2023-05-09T00:50:23;100582.63;;;11.59;100.00
66664;BME280;59683;51.428;-1.994;2023-05-09T00:52:51;100576.59;;;11.57;100.00
66664;BME280;59683;51.428;-1.994;2023-05-09T00:55:17;100571.56;;;11.54;100.00
66664;BME280;59683;51.428;-1.994;2023-05-09T00:57:57;100583.72;;;11.56;100.00
66664;BME280;59683;51.428;-1.994;2023-05-09T01:00:48;100578.41;;;11.56;100.00
66664;BME280;59683;51.428;-1.994;2023-05-09T01:03:14;100565.31;;;11.55;100.00
66664;BME280;59683;51.428;-1.994;2023-05-09T01:05:53;100572.28;;;11.56;100.00
66664;BME280;59683;51.428;-1.994;2023-05-09T01:09:00;100568.22;;;11.52;100.00
66664;BME280;59683;51.428;-1.994;2023-05-09T01:11:43;100578.56;;;11.55;100.00
66664;BME280;59683;51.428;-1.994;2023-05-09T02:21:03;100526.38;;;11.55;100.00
66664;BME280;59683;51.428;-1.994;2023-05-09T02:23:33;100529.03;;;11.55;100.00
66664;BME280;59683;51.428;-1.994;2023-05-09T03:20:15;100506.66;;;11.06;100.00
66664;BME280;59683;51.428;-1.994;2023-05-09T03:22:41;100506.72;;;10.95;100.00
66664;BME280;59683;51.428;-1.994;2023-05-09T03:25:07;100498.44;;;10.88;100.00
66664;BME280;59683;51.428;-1.994;2023-05-09T03:27:38;100506.38;;;10.88;100.00
66664;BME280;59683;51.428;-1.994;2023-05-09T03:39:23;100483.53;;;10.87;100.00
66664;BME280;59683;51.428;-1.994;2023-05-09T03:45:10;100476.03;;;10.92;100.00
66664;BME280;59683;51.428;-1.994;2023-05-09T03:47:36;100475.63;;;10.97;100.00
66664;BME280;59683;51.428;-1.994;2023-05-09T03:50:02;100477.06;;;11.01;100.00
66664;BME280;59683;51.428;-1.994;2023-05-09T03:52:28;100483.53;;;11.08;100.00
66664;BME280;59683;51.428;-1.994;2023-05-09T03:54:53;100480.38;;;11.14;100.00
66664;BME280;59683;51.428;-1.994;2023-05-09T03:57:19;100476.88;;;11.14;100.00
66664;BME280;59683;51.428;-1.994;2023-05-09T03:59:44;100472.69;;;11.11;100.00
66664;BME280;59683;51.428;-1.994;2023-05-09T04:02:10;100480.81;;;11.19;100.00
66664;BME280;59683;51.428;-1.994;2023-05-09T04:04:36;100483.59;;;11.18;100.00
66664;BME280;59683;51.428;-1.994;2023-05-09T04:07:01;100478.31;;;11.18;100.00
66664;BME280;59683;51.428;-1.994;2023-05-09T04:09:27;100477.47;;;11.17;100.00
66664;BME280;59683;51.428;-1.994;2023-05-09T04:11:53;100469.38;;;11.19;100.00
66664;BME280;59683;51.428;-1.994;2023-05-09T04:14:18;100465.66;;;11.22;100.00
66664;BME280;59683;51.428;-1.994;2023-05-09T04:16:43;100462.41;;;11.18;100.00
66664;BME280;59683;51.428;-1.994;2023-05-09T04:19:09;100457.22;;;11.16;100.00
66664;BME280;59683;51.428;-1.994;2023-05-09T04:21:35;100454.72;;;11.15;100.00
66664;BME280;59683;51.428;-1.994;2023-05-09T04:24:00;100456.63;;;11.13;100.00
66664;BME280;59683;51.428;-1.994;2023-05-09T04:26:26;100454.97;;;11.12;100.00
66664;BME280;59683;51.428;-1.994;2023-05-09T04:28:52;100464.88;;;11.10;100.00
66664;BME280;59683;51.428;-1.994;2023-05-09T04:31:17;100452.72;;;11.07;100.00
66664;BME280;59683;51.428;-1.994;2023-05-09T04:33:43;100448.41;;;11.06;100.00
66664;BME280;59683;51.428;-1.994;2023-05-09T04:36:09;100444.03;;;11.05;100.00
66664;BME280;59683;51.428;-1.994;2023-05-09T04:38:34;100453.56;;;11.08;100.00
66664;BME280;59683;51.428;-1.994;2023-05-09T04:41:00;100448.09;;;11.09;100.00
66664;BME280;59683;51.428;-1.994;2023-05-09T04:43:25;100445.22;;;11.12;100.00
66664;BME280;59683;51.428;-1.994;2023-05-09T04:45:52;100447.75;;;11.14;100.00
66664;BME280;59683;51.428;-1.994;2023-05-09T04:48:18;100437.25;;;11.12;100.00
66664;BME280;59683;51.428;-1.994;2023-05-09T04:50:43;100437.25;;;11.12;100.00
66664;BME280;59683;51.428;-1.994;2023-05-09T04:53:09;100434.75;;;11.11;100.00
66664;BME280;59683;51.428;-1.994;2023-05-09T04:55:35;100439.66;;;11.15;100.00
66664;BME280;59683;51.428;-1.994;2023-05-09T05:08:06;100412.94;;;11.28;100.00
66664;BME280;59683;51.428;-1.994;2023-05-09T05:10:32;100423.53;;;11.28;100.00
66664;BME280;59683;51.428;-1.994;2023-05-09T05:12:57;100421.88;;;11.27;100.00
66664;BME280;59683;51.428;-1.994;2023-05-09T05:15:22;100414.06;;;11.26;100.00
66664;BME280;59683;51.428;-1.994;2023-05-09T05:17:48;100414.75;;;11.28;100.00
66664;BME280;59683;51.428;-1.994;2023-05-09T05:20:13;100422.19;;;11.34;100.00
66664;BME280;59683;51.428;-1.994;2023-05-09T05:22:39;100414.41;;;11.32;100.00
66664;BME280;59683;51.428;-1.994;2023-05-09T05:25:04;100411.34;;;11.37;100.00
66664;BME280;59683;51.428;-1.994;2023-05-09T05:27:31;100414.16;;;11.45;100.00
66664;BME280;59683;51.428;-1.994;2023-05-09T05:29:57;100412.66;;;11.52;100.00
66664;BME280;59683;51.428;-1.994;2023-05-09T05:32:22;100408.50;;;11.59;100.00
66664;BME280;59683;51.428;-1.994;2023-05-09T05:34:48;100414.97;;;11.66;100.00
66664;BME280;59683;51.428;-1.994;2023-05-09T05:37:13;100412.88;;;11.70;100.00
66664;BME280;59683;51.428;-1.994;2023-05-09T05:39:38;100414.03;;;11.77;100.00
66664;BME280;59683;51.428;-1.994;2023-05-09T05:42:04;100416.25;;;11.82;100.00
66664;BME280;59683;51.428;-1.994;2023-05-09T05:44:29;100432.09;;;11.93;100.00
66664;BME280;59683;51.428;-1.994;2023-05-09T05:46:55;100424.56;;;11.98;100.00
66664;BME280;59683;51.428;-1.994;2023-05-09T05:49:20;100430.44;;;12.02;100.00
66664;BME280;59683;51.428;-1.994;2023-05-09T05:51:46;100438.84;;;12.17;100.00
66664;BME280;59683;51.428;-1.994;2023-05-09T05:54:11;100445.25;;;12.14;100.00
66664;BME280;59683;51.428;-1.994;2023-05-09T05:56:36;100444.47;;;12.23;100.00
66664;BME280;59683;51.428;-1.994;2023-05-09T05:59:02;100438.72;;;12.18;100.00
66664;BME280;59683;51.428;-1.994;2023-05-09T06:01:27;100434.16;;;12.30;100.00
66664;BME280;59683;51.428;-1.994;2023-05-09T06:03:53;100431.75;;;12.36;100.00
66664;BME280;59683;51.428;-1.994;2023-05-09T06:06:21;100432.75;;;12.45;100.00
66664;BME280;59683;51.428;-1.994;2023-05-09T06:08:47;100432.19;;;12.51;100.00
66664;BME280;59683;51.428;-1.994;2023-05-09T06:11:15;100423.69;;;12.57;100.00
66664;BME280;59683;51.428;-1.994;2023-05-09T06:13:41;100423.38;;;12.70;100.00
66664;BME280;59683;51.428;-1.994;2023-05-09T06:16:07;100424.63;;;12.85;100.00
66664;BME280;59683;51.428;-1.994;2023-05-09T06:18:36;100431.66;;;12.86;100.00
66664;BME280;59683;51.428;-1.994;2023-05-09T06:21:04;100430.22;;;12.92;100.00
66664;BME280;59683;51.428;-1.994;2023-05-09T06:23:30;100424.75;;;12.94;100.00
66664;BME280;59683;51.428;-1.994;2023-05-09T06:25:55;100427.16;;;12.77;100.00
66664;BME280;59683;51.428;-1.994;2023-05-09T06:28:21;100432.47;;;12.77;100.00
66664;BME280;59683;51.428;-1.994;2023-05-09T06:30:46;100435.13;;;12.77;100.00
66664;BME280;59683;51.428;-1.994;2023-05-09T06:33:12;100439.31;;;12.80;100.00
66664;BME280;59683;51.428;-1.994;2023-05-09T06:35:37;100434.59;;;12.64;100.00
66664;BME280;59683;51.428;-1.994;2023-05-09T06:38:02;100435.69;;;12.61;100.00
66664;BME280;59683;51.428;-1.994;2023-05-09T06:40:28;100435.84;;;12.60;100.00
66664;BME280;59683;51.428;-1.994;2023-05-09T06:42:54;100427.16;;;12.58;100.00
66664;BME280;59683;51.428;-1.994;2023-05-09T06:45:19;100440.03;;;12.62;100.00
66664;BME280;59683;51.428;-1.994;2023-05-09T06:47:45;100428.16;;;12.76;100.00
66664;BME280;59683;51.428;-1.994;2023-05-09T06:50:10;100429.66;;;12.98;100.00
66664;BME280;59683;51.428;-1.994;2023-05-09T06:52:35;100420.63;;;13.38;100.00
66664;BME280;59683;51.428;-1.994;2023-05-09T06:55:04;100431.19;;;13.67;100.00
66664;BME280;59683;51.428;-1.994;2023-05-09T06:57:33;100426.69;;;13.95;100.00
66664;BME280;59683;51.428;-1.994;2023-05-09T06:59:58;100426.53;;;14.24;100.00
66664;BME280;59683;51.428;-1.994;2023-05-09T07:02:24;100425.47;;;14.35;100.00
66664;BME280;59683;51.428;-1.994;2023-05-09T07:04:53;100419.56;;;14.14;100.00
66664;BME280;59683;51.428;-1.994;2023-05-09T07:07:18;100394.63;;;13.97;100.00
66664;BME280;59683;51.428;-1.994;2023-05-09T07:09:46;100395.28;;;13.81;100.00
66664;BME280;59683;51.428;-1.994;2023-05-09T07:12:14;100383.06;;;13.88;100.00
66664;BME280;59683;51.428;-1.994;2023-05-09T07:14:39;100365.66;;;13.94;100.00
66664;BME280;59683;51.428;-1.994;2023-05-09T07:17:06;100356.69;;;13.95;100.00
66664;BME280;59683;51.428;-1.994;2023-05-09T07:19:33;100352.34;;;13.94;100.00
66664;BME280;59683;51.428;-1.994;2023-05-09T07:22:01;100351.91;;;13.98;100.00
66664;BME280;59683;51.428;-1.994;2023-05-09T07:24:39;100348.72;;;13.67;100.00
66664;BME280;59683;51.428;-1.994;2023-05-09T07:27:39;100350.03;;;13.63;100.00
66664;BME280;59683;51.428;-1.994;2023-05-09T07:30:06;100342.50;;;13.58;100.00
66664;BME280;59683;51.428;-1.994;2023-05-09T07:32:35;100351.78;;;13.72;100.00
66664;BME280;59683;51.428;-1.994;2023-05-09T07:35:14;100354.34;;;13.92;100.00
66664;BME280;59683;51.428;-1.994;2023-05-09T07:37:48;100349.47;;;14.05;100.00
66664;BME280;59683;51.428;-1.994;2023-05-09T07:40:19;100345.53;;;14.45;100.00
66664;BME280;59683;51.428;-1.994;2023-05-09T07:42:47;100347.59;;;14.51;100.00
66664;BME280;59683;51.428;-1.994;2023-05-09T07:57:57;100344.91;;;13.97;100.00
66664;BME280;59683;51.428;-1.994;2023-05-09T08:00:32;100349.84;;;14.10;100.00
66664;BME280;59683;51.428;-1.994;2023-05-09T08:03:06;100344.53;;;14.10;100.00
66664;BME280;59683;51.428;-1.994;2023-05-09T08:06:02;100343.94;;;14.16;100.00
66664;BME280;59683;51.428;-1.994;2023-05-09T08:08:33;100338.31;;;14.37;100.00
66664;BME280;59683;51.428;-1.994;2023-05-09T08:11:01;100336.31;;;14.39;100.00
66664;BME280;59683;51.428;-1.994;2023-05-09T08:13:27;100337.34;;;14.56;100.00
66664;BME280;59683;51.428;-1.994;2023-05-09T08:15:52;100340.59;;;14.50;100.00
66664;BME280;59683;51.428;-1.994;2023-05-09T08:18:18;100335.63;;;14.55;100.00
66664;BME280;59683;51.428;-1.994;2023-05-09T08:20:43;100334.09;;;14.70;100.00
66664;BME280;59683;51.428;-1.994;2023-05-09T08:23:08;100337.22;;;14.66;100.00
66664;BME280;59683;51.428;-1.994;2023-05-09T08:25:35;100335.47;;;14.74;100.00
66664;BME280;59683;51.428;-1.994;2023-05-09T08:28:00;100328.75;;;14.70;100.00
66664;BME280;59683;51.428;-1.994;2023-05-09T08:30:26;100334.72;;;14.64;100.00
66664;BME280;59683;51.428;-1.994;2023-05-09T08:32:54;100319.69;;;14.81;100.00
66664;BME280;59683;51.428;-1.994;2023-05-09T08:35:20;100324.03;;;14.82;100.00
66664;BME280;59683;51.428;-1.994;2023-05-09T08:37:46;100328.44;;;14.73;100.00
66664;BME280;59683;51.428;-1.994;2023-05-09T08:40:15;100331.41;;;14.70;100.00
66664;BME280;59683;51.428;-1.994;2023-05-09T08:42:45;100327.16;;;14.77;100.00
66664;BME280;59683;51.428;-1.994;2023-05-09T08:45:19;100328.84;;;14.78;100.00
66664;BME280;59683;51.428;-1.994;2023-05-09T08:47:52;100328.63;;;14.72;100.00
66664;BME280;59683;51.428;-1.994;2023-05-09T08:50:23;100319.22;;;14.60;100.00
66664;BME280;59683;51.428;-1.994;2023-05-09T08:53:02;100326.25;;;14.69;100.00
66664;BME280;59683;51.428;-1.994;2023-05-09T08:55:31;100321.28;;;14.74;100.00
66664;BME280;59683;51.428;-1.994;2023-05-09T08:58:08;100311.31;;;15.02;100.00
66664;BME280;59683;51.428;-1.994;2023-05-09T09:00:35;100310.25;;;15.21;100.00
66664;BME280;59683;51.428;-1.994;2023-05-09T09:03:13;100306.72;;;15.12;100.00
66664;BME280;59683;51.428;-1.994;2023-05-09T09:05:41;100307.81;;;15.01;100.00
66664;BME280;59683;51.428;-1.994;2023-05-09T09:08:08;100308.50;;;15.03;100.00
66664;BME280;59683;51.428;-1.994;2023-05-09T09:10:47;100308.09;;;14.90;100.00
66664;BME280;59683;51.428;-1.994;2023-05-09T09:14:12;100315.59;;;14.95;100.00
66664;BME280;59683;51.428;-1.994;2023-05-09T09:16:46;100315.53;;;14.78;100.00
66664;BME280;59683;51.428;-1.994;2023-05-09T09:19:16;100322.25;;;14.65;100.00
66664;BME280;59683;51.428;-1.994;2023-05-09T09:21:46;100331.66;;;14.59;100.00
66664;BME280;59683;51.428;-1.994;2023-05-09T09:24:20;100327.28;;;14.50;100.00
66664;BME280;59683;51.428;-1.994;2023-05-09T09:26:51;100327.56;;;14.29;100.00
66664;BME280;59683;51.428;-1.994;2023-05-09T09:29:28;100333.81;;;14.02;100.00
66664;BME280;59683;51.428;-1.994;2023-05-09T09:35:28;100319.91;;;14.08;100.00
66664;BME280;59683;51.428;-1.994;2023-05-09T09:38:07;100321.88;;;14.42;100.00
66664;BME280;59683;51.428;-1.994;2023-05-09T09:41:00;100318.22;;;14.87;100.00
66664;BME280;59683;51.428;-1.994;2023-05-09T09:44:34;100300.63;;;15.70;100.00
66664;BME280;59683;51.428;-1.994;2023-05-09T09:46:55;100295.47;;;17.08;100.00
66664;BME280;59683;51.428;-1.994;2023-05-09T09:49:45;100286.25;;;17.50;100.00
66664;BME280;59683;51.428;-1.994;2023-05-09T09:55:24;100280.03;;;17.57;100.00
66664;BME280;59683;51.428;-1.994;2023-05-09T09:57:56;100279.31;;;17.32;100.00
66664;BME280;59683;51.428;-1.994;2023-05-09T10:00:31;100270.66;;;17.30;100.00
66664;BME280;59683;51.428;-1.994;2023-05-09T10:03:15;100267.69;;;17.48;100.00
66664;BME280;59683;51.428;-1.994;2023-05-09T10:05:57;100270.09;;;17.97;100.00
66664;BME280;59683;51.428;-1.994;2023-05-09T10:11:14;100253.03;;;18.21;100.00
66664;BME280;59683;51.428;-1.994;2023-05-09T10:14:02;100253.81;;;18.07;100.00
66664;BME280;59683;51.428;-1.994;2023-05-09T10:16:59;100258.31;;;18.06;100.00
66664;BME280;59683;51.428;-1.994;2023-05-09T10:20:01;100248.09;;;17.87;100.00
66664;BME280;59683;51.428;-1.994;2023-05-09T10:22:41;100257.25;;;18.15;100.00
66664;BME280;59683;51.428;-1.994;2023-05-09T10:25:27;100236.88;;;18.82;100.00
66664;BME280;59683;51.428;-1.994;2023-05-09T10:28:14;100235.16;;;19.61;100.00
66664;BME280;59683;51.428;-1.994;2023-05-09T10:33:35;100226.94;;;19.63;100.00
66664;BME280;59683;51.428;-1.994;2023-05-09T10:36:11;100225.38;;;19.17;100.00
66664;BME280;59683;51.428;-1.994;2023-05-09T10:38:55;100229.91;;;18.87;100.00
66664;BME280;59683;51.428;-1.994;2023-05-09T10:41:30;100233.13;;;18.68;100.00
66664;BME280;59683;51.428;-1.994;2023-05-09T10:44:07;100220.28;;;18.63;100.00
66664;BME280;59683;51.428;-1.994;2023-05-09T10:46:36;100223.75;;;17.96;100.00
66664;BME280;59683;51.428;-1.994;2023-05-09T10:49:04;100227.47;;;17.64;100.00
66664;BME280;59683;51.428;-1.994;2023-05-09T10:51:39;100217.03;;;17.46;100.00
66664;BME280;59683;51.428;-1.994;2023-05-09T10:54:41;100214.19;;;17.17;100.00
66664;BME280;59683;51.428;-1.994;2023-05-09T10:57:10;100219.44;;;17.02;100.00
66664;BME280;59683;51.428;-1.994;2023-05-09T10:59:54;100219.34;;;16.79;100.00
66664;BME280;59683;51.428;-1.994;2023-05-09T11:02:32;100211.75;;;16.99;100.00
66664;BME280;59683;51.428;-1.994;2023-05-09T11:05:21;100205.97;;;17.18;100.00
66664;BME280;59683;51.428;-1.994;2023-05-09T11:07:48;100210.22;;;17.67;100.00
66664;BME280;59683;51.428;-1.994;2023-05-09T11:10:46;100206.91;;;17.88;100.00
66664;BME280;59683;51.428;-1.994;2023-05-09T11:13:36;100199.91;;;17.87;100.00
66664;BME280;59683;51.428;-1.994;2023-05-09T11:16:31;100198.06;;;17.87;100.00
66664;BME280;59683;51.428;-1.994;2023-05-09T11:22:42;100200.63;;;18.18;100.00
66664;BME280;59683;51.428;-1.994;2023-05-09T11:25:48;100196.94;;;18.19;100.00
66664;BME280;59683;51.428;-1.994;2023-05-09T11:28:31;100193.09;;;18.37;100.00
66664;BME280;59683;51.428;-1.994;2023-05-09T11:31:17;100196.69;;;18.29;100.00
66664;BME280;59683;51.428;-1.994;2023-05-09T11:33:47;100188.94;;;18.49;100.00
66664;BME280;59683;51.428;-1.994;2023-05-09T11:39:02;100174.72;;;19.87;100.00
66664;BME280;59683;51.428;-1.994;2023-05-09T11:41:28;100174.38;;;19.97;100.00
66664;BME280;59683;51.428;-1.994;2023-05-09T11:44:00;100171.38;;;20.34;100.00
66664;BME280;59683;51.428;-1.994;2023-05-09T11:46:26;100175.63;;;20.85;100.00
66664;BME280;59683;51.428;-1.994;2023-05-09T11:48:57;100174.50;;;20.66;100.00
66664;BME280;59683;51.428;-1.994;2023-05-09T11:51:33;100176.72;;;20.56;100.00
66664;BME280;59683;51.428;-1.994;2023-05-09T11:54:06;100176.84;;;20.48;100.00
66664;BME280;59683;51.428;-1.994;2023-05-09T11:56:39;100165.47;;;20.18;100.00
66664;BME280;59683;51.428;-1.994;2023-05-09T11:59:14;100167.13;;;19.91;100.00
66664;BME280;59683;51.428;-1.994;2023-05-09T12:01:40;100162.13;;;20.16;100.00
66664;BME280;59683;51.428;-1.994;2023-05-09T12:04:08;100166.69;;;20.15;100.00
66664;BME280;59683;51.428;-1.994;2023-05-09T12:06:34;100171.97;;;20.30;100.00
66664;BME280;59683;51.428;-1.994;2023-05-09T12:08:59;100166.00;;;19.78;100.00
66664;BME280;59683;51.428;-1.994;2023-05-09T12:11:28;100163.34;;;19.85;100.00
66664;BME280;59683;51.428;-1.994;2023-05-09T12:13:56;100163.16;;;19.86;100.00
66664;BME280;59683;51.428;-1.994;2023-05-09T12:16:21;100162.06;;;19.81;100.00
66664;BME280;59683;51.428;-1.994;2023-05-09T12:18:52;100155.19;;;19.72;100.00
66664;BME280;59683;51.428;-1.994;2023-05-09T12:21:23;100158.34;;;19.39;100.00
66664;BME280;59683;51.428;-1.994;2023-05-09T12:23:48;100155.03;;;19.37;100.00
66664;BME280;59683;51.428;-1.994;2023-05-09T12:26:14;100152.44;;;19.29;100.00
66664;BME280;59683;51.428;-1.994;2023-05-09T12:28:40;100145.44;;;19.49;100.00
66664;BME280;59683;51.428;-1.994;2023-05-09T12:31:10;100149.59;;;19.30;100.00
66664;BME280;59683;51.428;-1.994;2023-05-09T12:33:37;100135.72;;;19.27;100.00
66664;BME280;59683;51.428;-1.994;2023-05-09T12:36:12;100134.09;;;19.11;100.00
66664;BME280;59683;51.428;-1.994;2023-05-09T12:38:55;100131.31;;;19.19;100.00
66664;BME280;59683;51.428;-1.994;2023-05-09T12:41:24;100132.28;;;20.32;100.00
66664;BME280;59683;51.428;-1.994;2023-05-09T12:43:49;100123.59;;;20.65;100.00
66664;BME280;59683;51.428;-1.994;2023-05-09T12:46:20;100126.94;;;21.21;100.00
66664;BME280;59683;51.428;-1.994;2023-05-09T12:48:53;100117.28;;;21.40;100.00
66664;BME280;59683;51.428;-1.994;2023-05-09T12:51:22;100122.19;;;20.69;100.00
66664;BME280;59683;51.428;-1.994;2023-05-09T12:53:47;100113.94;;;20.42;100.00
66664;BME280;59683;51.428;-1.994;2023-05-09T12:56:32;100109.47;;;20.97;100.00
66664;BME280;59683;51.428;-1.994;2023-05-09T12:59:25;100113.31;;;22.29;100.00
66664;BME280;59683;51.428;-1.994;2023-05-09T13:02:00;100104.16;;;22.43;100.00
66664;BME280;59683;51.428;-1.994;2023-05-09T13:04:35;100119.34;;;21.91;100.00
66664;BME280;59683;51.428;-1.994;2023-05-09T13:07:07;100122.94;;;21.04;100.00
66664;BME280;59683;51.428;-1.994;2023-05-09T13:09:33;100114.81;;;20.14;100.00
66664;BME280;59683;51.428;-1.994;2023-05-09T13:11:58;100105.44;;;19.54;100.00
66664;BME280;59683;51.428;-1.994;2023-05-09T13:14:25;100110.91;;;19.03;100.00
66664;BME280;59683;51.428;-1.994;2023-05-09T13:16:51;100107.81;;;19.06;100.00
66664;BME280;59683;51.428;-1.994;2023-05-09T13:19:17;100096.63;;;18.81;100.00
66664;BME280;59683;51.428;-1.994;2023-05-09T13:21:43;100099.00;;;18.61;100.00
66664;BME280;59683;51.428;-1.994;2023-05-09T13:24:08;100097.28;;;18.09;100.00
66664;BME280;59683;51.428;-1.994;2023-05-09T13:26:34;100108.03;;;17.86;100.00
66664;BME280;59683;51.428;-1.994;2023-05-09T13:28:59;100107.22;;;17.86;100.00
66664;BME280;59683;51.428;-1.994;2023-05-09T13:31:25;100103.06;;;17.60;100.00
66664;BME280;59683;51.428;-1.994;2023-05-09T13:33:50;100111.94;;;17.61;100.00
66664;BME280;59683;51.428;-1.994;2023-05-09T13:36:16;100108.41;;;17.37;100.00
66664;BME280;59683;51.428;-1.994;2023-05-09T13:38:42;100109.28;;;17.38;100.00
66664;BME280;59683;51.428;-1.994;2023-05-09T13:41:09;100117.66;;;17.35;100.00
66664;BME280;59683;51.428;-1.994;2023-05-09T13:43:35;100121.81;;;17.06;100.00
66664;BME280;59683;51.428;-1.994;2023-05-09T13:46:01;100118.94;;;16.85;100.00
66664;BME280;59683;51.428;-1.994;2023-05-09T13:48:27;100118.09;;;16.84;100.00
66664;BME280;59683;51.428;-1.994;2023-05-09T13:50:53;100120.63;;;16.86;100.00
66664;BME280;59683;51.428;-1.994;2023-05-09T13:53:18;100119.31;;;16.82;100.00
66664;BME280;59683;51.428;-1.994;2023-05-09T13:55:44;100110.63;;;16.71;100.00
66664;BME280;59683;51.428;-1.994;2023-05-09T13:58:11;100114.59;;;16.84;100.00
66664;BME280;59683;51.428;-1.994;2023-05-09T14:00:37;100105.22;;;16.88;100.00
66664;BME280;59683;51.428;-1.994;2023-05-09T14:03:02;100101.69;;;17.18;100.00
66664;BME280;59683;51.428;-1.994;2023-05-09T14:05:30;100099.56;;;17.83;100.00
66664;BME280;59683;51.428;-1.994;2023-05-09T14:07:55;100089.63;;;18.21;100.00
66664;BME280;59683;51.428;-1.994;2023-05-09T14:10:21;100088.69;;;19.52;100.00
66664;BME280;59683;51.428;-1.994;2023-05-09T14:13:23;100084.28;;;21.18;100.00
66664;BME280;59683;51.428;-1.994;2023-05-09T14:15:49;100075.78;;;22.79;100.00
66664;BME280;59683;51.428;-1.994;2023-05-09T14:18:14;100071.56;;;23.66;100.00
66664;BME280;59683;51.428;-1.994;2023-05-09T14:20:42;100051.03;;;24.45;100.00
66664;BME280;59683;51.428;-1.994;2023-05-09T14:23:10;100059.28;;;23.64;100.00
66664;BME280;59683;51.428;-1.994;2023-05-09T14:25:35;100052.50;;;23.55;100.00
66664;BME280;59683;51.428;-1.994;2023-05-09T14:28:01;100050.00;;;23.53;100.00
66664;BME280;59683;51.428;-1.994;2023-05-09T14:30:29;100039.34;;;23.40;100.00
66664;BME280;59683;51.428;-1.994;2023-05-09T14:32:54;100031.25;;;23.58;100.00
66664;BME280;59683;51.428;-1.994;2023-05-09T14:35:20;100034.25;;;22.87;100.00
66664;BME280;59683;51.428;-1.994;2023-05-09T14:37:45;100032.41;;;22.42;100.00
66664;BME280;59683;51.428;-1.994;2023-05-09T14:40:11;100034.41;;;21.75;100.00
66664;BME280;59683;51.428;-1.994;2023-05-09T14:42:36;100041.00;;;21.26;100.00
66664;BME280;59683;51.428;-1.994;2023-05-09T14:45:03;100041.31;;;20.29;100.00
66664;BME280;59683;51.428;-1.994;2023-05-09T14:47:29;100027.59;;;19.54;100.00
66664;BME280;59683;51.428;-1.994;2023-05-09T14:49:55;100027.56;;;19.05;100.00
66664;BME280;59683;51.428;-1.994;2023-05-09T14:52:20;100020.00;;;18.57;100.00
66664;BME280;59683;51.428;-1.994;2023-05-09T14:54:46;100019.53;;;18.54;100.00
66664;BME280;59683;51.428;-1.994;2023-05-09T14:57:11;100026.41;;;18.41;100.00
66664;BME280;59683;51.428;-1.994;2023-05-09T14:59:37;100025.78;;;18.39;100.00
66664;BME280;59683;51.428;-1.994;2023-05-09T15:02:02;100024.88;;;18.32;100.00
66664;BME280;59683;51.428;-1.994;2023-05-09T15:04:28;100023.75;;;18.27;100.00
66664;BME280;59683;51.428;-1.994;2023-05-09T15:06:55;100029.03;;;18.05;100.00
66664;BME280;59683;51.428;-1.994;2023-05-09T15:09:21;100027.94;;;18.00;100.00
66664;BME280;59683;51.428;-1.994;2023-05-09T15:11:47;100033.75;;;17.88;100.00
66664;BME280;59683;51.428;-1.994;2023-05-09T15:14:12;100042.13;;;18.00;100.00
66664;BME280;59683;51.428;-1.994;2023-05-09T15:16:38;100037.53;;;17.79;100.00
66664;BME280;59683;51.428;-1.994;2023-05-09T15:19:04;100042.88;;;17.79;100.00
66664;BME280;59683;51.428;-1.994;2023-05-09T15:21:29;100050.44;;;17.76;100.00
66664;BME280;59683;51.428;-1.994;2023-05-09T15:23:55;100050.47;;;17.53;100.00
66664;BME280;59683;51.428;-1.994;2023-05-09T15:26:22;100053.41;;;17.58;100.00
66664;BME280;59683;51.428;-1.994;2023-05-09T15:28:48;100048.16;;;17.50;100.00
66664;BME280;59683;51.428;-1.994;2023-05-09T15:31:13;100046.25;;;17.35;100.00
66664;BME280;59683;51.428;-1.994;2023-05-09T15:33:39;100047.63;;;17.08;100.00
66664;BME280;59683;51.428;-1.994;2023-05-09T15:36:05;100049.97;;;16.80;100.00
66664;BME280;59683;51.428;-1.994;2023-05-09T15:38:31;100048.78;;;16.51;100.00
66664;BME280;59683;51.428;-1.994;2023-05-09T15:40:56;100050.22;;;16.23;100.00